Time;durP1;ratioP1;P1;durP2;ratioP2;P2;SDS_P1;SDS_P2;PMS_P1;PMS_P2;Temp;Humidity;BMP_temperature;BMP_pressure;BME280_temperature;BME280_humidity;BME280_pressure;Samples;Min_cycle;Max_cycle;Signal;HPM_P1;HPM_P2
2022/07/28 00:01:12;;;;;;;2.55;0.90;;;;;;;22.82;29.66;101499.59;5047527;28;20116;-82
2022/07/28 00:03:44;;;;;;;3.35;1.20;;;;;;;22.79;29.49;101497.19;5051528;28;20053;-82
2022/07/28 00:06:23;;;;;;;2.25;0.93;;;;;;;22.79;30.20;101493.53;5073945;28;20056;-82
2022/07/28 00:09:00;;;;;;;2.97;1.17;;;;;;;22.72;30.12;101494.19;5040990;28;20085;-82
2022/07/28 00:11:28;;;;;;;2.13;1.00;;;;;;;22.70;30.09;101485.19;5044655;28;20047;-82
2022/07/28 00:13:56;;;;;;;3.05;1.10;;;;;;;22.69;29.91;101488.09;5041955;28;20121;-82
2022/07/28 00:16:24;;;;;;;2.72;0.90;;;;;;;22.67;30.21;101495.69;5056656;28;20054;-82
2022/07/28 00:18:52;;;;;;;1.90;1.13;;;;;;;22.64;30.21;101493.28;5073019;28;20049;-82
2022/07/28 00:21:20;;;;;;;3.50;1.20;;;;;;;22.63;30.23;101492.41;5055612;28;20128;-82
2022/07/28 00:23:49;;;;;;;2.63;0.95;;;;;;;22.62;30.30;101492.56;5056263;28;20127;-82
2022/07/28 00:26:17;;;;;;;2.03;0.95;;;;;;;22.59;30.53;101487.34;5052881;28;20040;-82
2022/07/28 00:28:45;;;;;;;2.30;1.00;;;;;;;22.58;30.50;101488.38;5053455;28;20048;-82
2022/07/28 00:31:13;;;;;;;2.30;0.82;;;;;;;22.55;30.31;101488.72;5043141;28;20160;-82
2022/07/28 00:33:41;;;;;;;2.03;0.80;;;;;;;22.54;30.29;101484.22;5052979;28;20507;-82
2022/07/28 00:36:10;;;;;;;2.22;1.05;;;;;;;22.54;30.28;101484.22;5038145;28;20136;-82
2022/07/28 00:38:40;;;;;;;2.00;0.90;;;;;;;22.52;30.17;101478.84;5054545;28;20040;-81
2022/07/28 00:41:13;;;;;;;2.20;1.02;;;;;;;22.50;30.66;101471.72;5054678;28;20052;-81
2022/07/28 00:43:42;;;;;;;2.65;1.27;;;;;;;22.50;30.15;101472.59;5054517;28;20499;-81
2022/07/28 00:46:10;;;;;;;1.88;1.00;;;;;;;22.48;30.31;101471.06;5070878;28;20057;-81
2022/07/28 00:48:39;;;;;;;2.53;1.02;;;;;;;22.47;30.55;101470.19;5043117;28;20045;-81
2022/07/28 00:51:09;;;;;;;2.53;0.93;;;;;;;22.45;30.74;101472.25;5047835;28;20040;-82
2022/07/28 00:53:37;;;;;;;2.92;1.10;;;;;;;22.45;30.21;101465.84;5059778;28;20049;-82
2022/07/28 00:56:06;;;;;;;3.90;1.10;;;;;;;22.44;30.42;101470.50;5064850;28;20041;-80
2022/07/28 00:58:37;;;;;;;1.58;0.95;;;;;;;22.44;30.60;101466.88;5058246;28;20049;-81
2022/07/28 01:01:05;;;;;;;3.13;1.25;;;;;;;22.42;30.61;101460.63;5067485;28;20237;-81
2022/07/28 01:03:36;;;;;;;2.75;1.35;;;;;;;22.42;30.77;101468.91;5034554;28;20519;-81
2022/07/28 01:06:10;;;;;;;2.65;1.00;;;;;;;22.41;30.85;101468.06;5047288;28;20477;-81
2022/07/28 01:08:51;;;;;;;1.70;0.90;;;;;;;22.41;30.58;101470.81;5068003;28;20044;-81
2022/07/28 01:11:29;;;;;;;2.13;0.85;;;;;;;22.39;31.15;101461.84;5053967;28;20056;-82
2022/07/28 01:14:09;;;;;;;2.38;1.00;;;;;;;22.38;30.80;101460.09;5052894;28;20422;-81
2022/07/28 01:16:43;;;;;;;2.13;1.17;;;;;;;22.36;30.30;101462.16;5053463;28;20052;-82
2022/07/28 01:19:28;;;;;;;1.60;0.80;;;;;;;22.36;30.51;101459.38;5063548;28;20052;-82
2022/07/28 01:21:59;;;;;;;2.22;1.05;;;;;;;22.33;30.99;101463.34;5056302;28;20052;-81
2022/07/28 01:24:33;;;;;;;2.15;1.23;;;;;;;22.32;31.11;101457.97;5050559;28;20075;-81
2022/07/28 01:27:05;;;;;;;2.00;1.17;;;;;;;22.29;30.64;101452.78;5053403;28;20105;-82
2022/07/28 01:30:07;;;;;;;2.75;1.00;;;;;;;22.22;30.47;101455.34;5069695;28;20488;-82
2022/07/28 01:32:42;;;;;;;2.63;1.00;;;;;;;22.22;30.72;101460.00;5035174;28;20049;-81
2022/07/28 01:35:14;;;;;;;2.35;1.17;;;;;;;22.19;31.23;101457.56;5052579;28;20270;-81
2022/07/28 01:37:44;;;;;;;2.92;1.00;;;;;;;22.17;30.93;101456.84;5048001;28;20174;-82
2022/07/28 01:40:16;;;;;;;2.13;1.08;;;;;;;22.13;30.90;101455.44;5070767;28;20136;-81
2022/07/28 01:42:47;;;;;;;3.92;1.20;;;;;;;22.10;30.92;101459.41;5067828;28;20041;-82
2022/07/28 01:45:16;;;;;;;2.17;1.10;;;;;;;22.06;31.04;101454.38;5052728;28;20052;-82
2022/07/28 01:47:48;;;;;;;1.77;1.02;;;;;;;22.05;31.34;101453.50;5053038;28;20040;-82
2022/07/28 01:50:21;;;;;;;1.80;1.23;;;;;;;22.00;31.37;101450.34;5068903;28;20044;-82
2022/07/28 01:52:51;;;;;;;2.92;0.85;;;;;;;21.97;30.97;101456.19;5053502;28;20091;-82
2022/07/28 01:55:22;;;;;;;2.72;1.00;;;;;;;21.95;31.37;101442.50;5057280;28;20041;-83
2022/07/28 01:57:53;;;;;;;1.88;1.00;;;;;;;21.93;31.34;101446.44;5069387;28;20052;-81
2022/07/28 02:00:22;;;;;;;2.97;1.08;;;;;;;21.90;31.25;101444.03;5046998;28;20049;-83
2022/07/28 02:02:53;;;;;;;2.17;1.23;;;;;;;21.90;31.58;101435.72;5052280;28;20036;-82
2022/07/28 02:05:23;;;;;;;3.03;1.17;;;;;;;21.88;31.38;101438.66;5052798;28;20059;-82
2022/07/28 02:07:53;;;;;;;1.48;0.80;;;;;;;21.86;31.47;101443.47;5071887;28;20132;-83
2022/07/28 02:10:22;;;;;;;2.42;1.10;;;;;;;21.86;31.22;101442.59;5070360;28;20537;-82
2022/07/28 02:12:52;;;;;;;2.75;1.08;;;;;;;21.88;31.47;101443.31;5070582;28;20040;-82
2022/07/28 02:15:22;;;;;;;3.58;1.10;;;;;;;21.85;31.59;101436.19;5052207;28;20052;-82
2022/07/28 02:17:52;;;;;;;1.55;0.90;;;;;;;21.84;31.73;101428.94;5060487;28;20055;-83
2022/07/28 02:20:22;;;;;;;1.63;0.90;;;;;;;21.81;31.71;101429.28;5068494;28;20041;-83
2022/07/28 02:22:52;;;;;;;2.40;1.10;;;;;;;21.78;31.54;101425.94;5049739;28;20102;-81
2022/07/28 02:25:20;;;;;;;2.17;0.90;;;;;;;21.76;31.44;101419.72;5051607;28;20489;-81
2022/07/28 02:27:52;;;;;;;2.25;1.10;;;;;;;21.76;31.49;101419.72;5040462;28;20114;-81
2022/07/28 02:30:28;;;;;;;2.20;0.80;;;;;;;21.70;31.63;101415.69;5068793;28;20053;-81
2022/07/28 02:33:03;;;;;;;1.98;1.00;;;;;;;21.68;32.12;101414.13;5039933;28;20106;-81
2022/07/28 02:35:37;;;;;;;1.65;0.85;;;;;;;21.63;32.03;101417.38;5051442;28;20090;-81
2022/07/28 02:38:07;;;;;;;;;;;;;;;21.35;31.85;101418.50;5070781;28;20466;-81
2022/07/28 02:40:37;;;;;;;2.75;1.10;;;;;;;21.54;31.51;101421.09;5068375;28;19920;-81
2022/07/28 02:43:10;;;;;;;2.17;1.02;;;;;;;21.54;32.19;101419.22;5052331;28;20044;-81
2022/07/28 02:45:41;;;;;;;1.80;0.90;;;;;;;21.50;31.72;101420.53;5051169;28;20044;-81
2022/07/28 02:48:15;;;;;;;1.88;1.10;;;;;;;21.48;32.40;101422.63;5052329;28;20072;-80
2022/07/28 02:50:45;;;;;;;1.90;0.93;;;;;;;21.44;32.40;101418.41;5038160;28;20051;-81
2022/07/28 02:53:15;;;;;;;2.20;1.00;;;;;;;21.41;32.41;101412.38;5042436;28;20136;-80
2022/07/28 02:55:46;;;;;;;3.70;1.08;;;;;;;21.40;32.36;101413.38;5052660;28;20040;-82
2022/07/28 02:58:16;;;;;;;3.13;1.10;;;;;;;21.39;32.17;101417.16;5050280;28;20495;-80
2022/07/28 03:00:44;;;;;;;4.03;1.00;;;;;;;21.36;32.00;101399.00;5051286;28;20392;-81
2022/07/28 03:03:14;;;;;;;3.28;1.20;;;;;;;21.37;32.18;101398.00;5070424;28;20052;-80
2022/07/28 03:05:43;;;;;;;2.17;0.95;;;;;;;21.35;32.34;101399.16;5048203;28;20103;-81
2022/07/28 03:08:11;;;;;;;2.55;1.10;;;;;;;21.34;32.10;101402.94;5062280;28;20052;-82
2022/07/28 03:10:40;;;;;;;2.80;1.27;;;;;;;21.33;32.57;101404.00;5069688;28;20037;-82
2022/07/28 03:13:08;;;;;;;1.65;0.93;;;;;;;21.30;32.53;101394.13;5051673;28;20057;-82
2022/07/28 03:15:38;;;;;;;2.08;1.20;;;;;;;21.31;32.55;101395.88;5059791;28;20054;-82
2022/07/28 03:18:07;;;;;;;2.97;1.08;;;;;;;21.27;32.37;101389.78;5049103;28;20445;-81
2022/07/28 03:20:36;;;;;;;2.20;1.10;;;;;;;21.26;32.49;101404.63;5052262;28;20033;-81
2022/07/28 03:23:05;;;;;;;2.80;1.02;;;;;;;21.22;32.82;101399.56;5061662;28;20044;-82
2022/07/28 03:25:40;;;;;;;2.97;1.10;;;;;;;21.23;33.05;101401.31;5050973;28;20040;-82
2022/07/28 03:28:13;;;;;;;3.72;1.20;;;;;;;21.19;32.99;101400.75;5069324;28;20695;-82
2022/07/28 03:30:43;;;;;;;3.72;1.00;;;;;;;21.16;32.87;101406.59;5071068;28;20457;-82
2022/07/28 03:33:12;;;;;;;2.17;1.10;;;;;;;21.10;32.88;101406.31;5069544;28;20041;-82
2022/07/28 03:35:47;;;;;;;2.15;0.93;;;;;;;21.10;33.06;101414.59;5052077;28;20207;-82
2022/07/28 03:38:20;;;;;;;2.40;1.20;;;;;;;21.05;32.94;101412.31;5052599;28;20067;-82
2022/07/28 03:40:49;;;;;;;3.67;1.50;;;;;;;21.00;33.21;101414.66;5056438;28;20041;-82
2022/07/28 03:43:19;;;;;;;2.72;1.10;;;;;;;21.00;32.89;101419.34;5073881;28;20048;-82
2022/07/28 03:45:47;;;;;;;3.35;1.42;;;;;;;20.96;33.26;101417.91;5053864;28;20081;-82
2022/07/28 03:48:15;;;;;;;2.80;1.10;;;;;;;20.94;33.02;101420.81;5054344;28;20040;-83
2022/07/28 03:50:45;;;;;;;2.85;1.23;;;;;;;20.94;33.10;101412.53;5071813;28;20048;-82
2022/07/28 03:53:19;;;;;;;3.58;1.20;;;;;;;20.92;33.43;101413.75;5055821;28;20062;-82
2022/07/28 03:55:49;;;;;;;2.78;1.23;;;;;;;20.87;33.08;101408.66;5054625;28;20459;-83
2022/07/28 03:58:18;;;;;;;2.80;1.15;;;;;;;20.86;33.36;101417.97;5054964;28;20044;-81
2022/07/28 04:00:46;;;;;;;3.50;1.45;;;;;;;20.84;33.57;101420.88;5050507;28;20041;-82
2022/07/28 04:03:16;;;;;;;2.25;1.20;;;;;;;20.84;33.59;101420.00;5040082;28;20364;-82
2022/07/28 04:06:05;;;;;;;3.28;1.38;;;;;;;20.82;33.38;101422.94;5043904;28;20041;-82
2022/07/28 04:08:33;;;;;;;2.63;1.30;;;;;;;20.80;33.40;101419.47;5054550;28;20044;-82
2022/07/28 04:11:01;;;;;;;2.95;1.20;;;;;;;20.79;33.86;101422.38;5055237;28;20098;-82
2022/07/28 04:13:30;;;;;;;2.28;1.40;;;;;;;20.78;33.65;101413.22;5055447;28;20392;-83
2022/07/28 04:15:59;;;;;;;2.40;1.13;;;;;;;20.78;33.47;101412.34;5072962;28;20041;-83
2022/07/28 04:18:29;;;;;;;3.22;1.10;;;;;;;20.77;33.90;101413.38;5044377;28;20047;-82
2022/07/28 04:20:59;;;;;;;2.60;1.10;;;;;;;20.74;33.81;101414.56;5049782;28;20056;-82
2022/07/28 04:23:29;;;;;;;1.85;1.27;;;;;;;20.76;33.82;101412.50;5049078;28;20428;-82
2022/07/28 04:25:58;;;;;;;2.75;1.58;;;;;;;20.71;33.65;101401.06;5063025;28;20045;-83
2022/07/28 04:28:35;;;;;;;2.10;1.10;;;;;;;20.70;34.08;101412.25;5053279;28;20071;-81
2022/07/28 04:31:03;;;;;;;2.90;1.10;;;;;;;20.68;33.77;101412.41;5042848;28;20041;-81
2022/07/28 04:33:31;;;;;;;2.80;1.10;;;;;;;20.67;34.28;101413.44;5041503;28;20441;-82
2022/07/28 04:36:00;;;;;;;2.08;1.10;;;;;;;20.67;33.89;101421.72;5052060;28;20037;-82
2022/07/28 04:38:30;;;;;;;3.55;1.45;;;;;;;20.70;33.99;101426.06;5054089;28;20523;-82
2022/07/28 04:40:59;;;;;;;3.17;1.30;;;;;;;20.69;34.24;101422.44;5042563;28;20139;-82
2022/07/28 04:43:26;;;;;;;2.70;1.35;;;;;;;20.71;34.00;101422.28;5073205;28;20068;-82
2022/07/28 04:45:54;;;;;;;2.17;1.05;;;;;;;20.74;34.16;101411.81;5073152;28;20048;-82
2022/07/28 04:48:23;;;;;;;3.35;1.20;;;;;;;20.78;34.48;101416.00;5054185;28;20454;-81
2022/07/28 04:50:52;;;;;;;2.28;1.23;;;;;;;20.81;34.44;101423.09;5040872;28;20029;-82
2022/07/28 04:53:21;;;;;;;2.20;1.20;;;;;;;20.84;34.33;101417.25;5064375;28;20048;-81
2022/07/28 04:55:51;;;;;;;4.10;1.40;;;;;;;20.87;34.62;101415.06;5075036;28;20040;-81
2022/07/28 04:58:22;;;;;;;2.20;1.13;;;;;;;20.85;34.47;101419.00;5054831;28;20051;-80
2022/07/28 05:00:51;;;;;;;4.18;1.40;;;;;;;20.89;34.65;101421.31;5045445;28;20041;-82
2022/07/28 05:03:20;;;;;;;3.40;1.58;;;;;;;20.91;34.22;101412.88;5046677;28;20051;-82
2022/07/28 05:05:48;;;;;;;5.45;1.70;;;;;;;20.92;33.99;101422.84;5054988;28;20056;-82
2022/07/28 05:08:23;;;;;;;3.95;1.40;;;;;;;20.95;34.41;101418.94;5055348;28;20060;-82
2022/07/28 05:10:55;;;;;;;3.30;1.48;;;;;;;20.98;34.46;101422.25;5060839;28;20072;-82
2022/07/28 05:13:23;;;;;;;3.20;1.40;;;;;;;21.00;34.31;101422.09;5057542;28;20143;-82
2022/07/28 05:16:00;;;;;;;5.65;1.50;;;;;;;21.07;34.48;101425.97;5047067;28;20048;-81
2022/07/28 05:18:28;;;;;;;2.80;1.50;;;;;;;21.17;34.62;101426.78;5051582;28;20128;-82
2022/07/28 05:20:56;;;;;;;2.60;1.35;;;;;;;21.29;34.79;101425.53;5033976;28;20048;-81
2022/07/28 05:23:23;;;;;;;2.95;1.38;;;;;;;21.40;34.86;101419.78;5051910;28;20410;-82
2022/07/28 05:25:52;;;;;;;3.92;1.42;;;;;;;21.56;34.49;101422.69;5055072;28;20098;-82
2022/07/28 05:28:24;;;;;;;4.18;1.40;;;;;;;21.72;34.20;101415.53;5043298;28;20076;-83
2022/07/28 05:30:52;;;;;;;2.28;1.30;;;;;;;21.82;34.41;101411.66;5068588;28;20044;-83
2022/07/28 05:33:20;;;;;;;2.53;1.25;;;;;;;21.97;34.24;101414.72;5072997;28;20051;-83
2022/07/28 05:35:53;;;;;;;2.85;1.30;;;;;;;22.14;33.66;101416.56;5042698;28;20561;-82
2022/07/28 05:38:21;;;;;;;;;;;;;;;21.94;34.37;101407.59;5072945;28;20746;-83
2022/07/28 05:40:49;;;;;;;3.17;1.70;;;;;;;22.31;33.49;101406.47;5060700;28;19950;-83
2022/07/28 05:43:17;;;;;;;3.22;1.20;;;;;;;22.46;33.75;101406.69;5056330;28;20094;-83
2022/07/28 05:45:47;;;;;;;3.42;1.63;;;;;;;22.62;33.45;101409.53;5059196;28;20067;-83
2022/07/28 05:48:17;;;;;;;2.60;1.27;;;;;;;22.75;33.37;101407.19;5053467;28;20044;-84
2022/07/28 05:50:45;;;;;;;3.42;1.15;;;;;;;22.86;33.54;101404.09;5065109;28;20117;-83
2022/07/28 05:53:13;;;;;;;3.22;1.40;;;;;;;22.98;33.06;101404.63;5055625;28;20117;-83
2022/07/28 05:55:42;;;;;;;3.28;1.60;;;;;;;23.12;32.95;101402.09;5047276;28;20113;-82
2022/07/28 05:58:29;;;;;;;2.88;1.27;;;;;;;23.27;32.64;101402.28;5053619;28;20037;-82
2022/07/28 06:01:00;;;;;;;3.08;1.40;;;;;;;23.39;32.16;101413.91;5047711;28;20072;-80
2022/07/28 06:03:30;;;;;;;3.63;1.40;;;;;;;23.43;32.53;101405.06;5052318;28;20044;-80
2022/07/28 06:05:59;;;;;;;3.63;1.20;;;;;;;23.49;32.16;101406.28;5071010;28;20143;-81
2022/07/28 06:08:44;;;;;;;4.47;1.30;;;;;;;23.53;31.89;101407.69;5050461;28;20041;-81
2022/07/28 06:11:12;;;;;;;2.35;1.08;;;;;;;23.56;31.90;101407.34;5063777;28;20044;-82
2022/07/28 06:13:50;;;;;;;2.05;1.13;;;;;;;23.59;32.12;101400.59;5047436;28;20081;-82
2022/07/28 06:16:21;;;;;;;1.98;0.98;;;;;;;23.62;32.50;101401.13;5064644;28;20120;-81
2022/07/28 06:18:50;;;;;;;2.55;1.08;;;;;;;23.62;32.23;101403.88;5068807;28;20049;-81
2022/07/28 06:21:18;;;;;;;2.92;1.20;;;;;;;23.65;32.59;101411.84;5048242;28;20070;-82
2022/07/28 06:23:46;;;;;;;3.15;1.33;;;;;;;23.68;32.16;101402.31;5045839;28;20043;-81
2022/07/28 06:26:13;;;;;;;3.38;1.10;;;;;;;23.73;32.86;101408.19;5046543;28;20067;-80
2022/07/28 06:28:42;;;;;;;3.40;1.17;;;;;;;23.79;32.28;101407.50;5055264;28;20124;-81
2022/07/28 06:31:10;;;;;;;2.45;1.00;;;;;;;23.86;32.56;101411.31;5068198;28;20075;-81
2022/07/28 06:33:39;;;;;;;1.90;1.20;;;;;;;23.96;32.35;101406.44;5050302;28;20040;-80
2022/07/28 06:36:07;;;;;;;4.15;1.50;;;;;;;24.02;32.42;101402.97;5065735;28;20423;-80
2022/07/28 06:38:35;;;;;;;4.80;1.33;;;;;;;24.11;32.44;101410.22;5061609;28;20463;-80
2022/07/28 06:41:03;;;;;;;2.53;1.20;;;;;;;24.18;32.25;101410.38;5065628;28;20127;-81
2022/07/28 06:43:32;;;;;;;2.20;1.30;;;;;;;24.23;31.53;101411.59;5069202;28;20139;-81
2022/07/28 06:46:05;;;;;;;2.60;1.20;;;;;;;24.30;31.61;101420.06;5052062;28;20036;-80
2022/07/28 06:48:36;;;;;;;2.30;1.10;;;;;;;24.35;31.79;101409.31;5072145;28;20040;-83
2022/07/28 06:51:06;;;;;;;2.58;1.33;;;;;;;24.40;31.58;101412.41;5039602;28;20045;-82
2022/07/28 06:53:34;;;;;;;2.25;1.13;;;;;;;24.39;31.18;101407.03;5066792;28;20040;-83
2022/07/28 06:56:03;;;;;;;3.38;1.38;;;;;;;24.42;31.38;101406.69;5051719;28;20052;-81
2022/07/28 06:58:32;;;;;;;4.70;1.40;;;;;;;24.40;31.67;101401.31;5062062;28;20147;-82
2022/07/28 07:01:01;;;;;;;2.95;1.27;;;;;;;24.42;30.96;101403.91;5057397;28;20044;-82
2022/07/28 07:03:29;;;;;;;2.83;1.35;;;;;;;24.43;31.08;101406.50;5072884;28;20040;-82
2022/07/28 07:05:57;;;;;;;4.18;1.10;;;;;;;24.42;31.24;101409.47;5053252;28;20052;-84
2022/07/28 07:08:26;;;;;;;3.40;1.20;;;;;;;24.44;31.05;101410.16;5057322;28;20037;-82
2022/07/28 07:10:55;;;;;;;2.70;1.30;;;;;;;24.41;31.01;101408.59;5047311;28;20045;-82
2022/07/28 07:13:23;;;;;;;3.20;1.10;;;;;;;24.41;31.57;101405.81;5052485;28;20072;-84
2022/07/28 07:15:51;;;;;;;2.90;1.10;;;;;;;24.39;30.91;101410.69;5052871;28;20049;-82
2022/07/28 07:18:19;;;;;;;3.28;1.30;;;;;;;24.40;31.38;101406.88;5057095;28;20066;-83
2022/07/28 07:20:48;;;;;;;2.78;1.23;;;;;;;24.40;31.45;101400.44;5054209;28;20036;-82
2022/07/28 07:23:16;;;;;;;2.72;1.20;;;;;;;24.39;31.03;101396.81;5052127;28;20075;-83
2022/07/28 07:25:46;;;;;;;2.97;1.10;;;;;;;24.40;31.30;101395.75;5053279;28;20068;-82
2022/07/28 07:28:16;;;;;;;2.13;0.82;;;;;;;24.38;31.53;101391.44;5053066;28;20133;-82
2022/07/28 07:30:44;;;;;;;3.28;1.10;;;;;;;24.39;30.92;101391.25;5052537;28;20460;-83
2022/07/28 07:33:12;;;;;;;6.05;1.35;;;;;;;24.39;31.29;101380.16;5070328;28;20047;-82
2022/07/28 07:35:40;;;;;;;2.65;1.02;;;;;;;24.39;31.39;101388.47;5056146;28;20056;-83
2022/07/28 07:38:10;;;;;;;2.60;1.20;;;;;;;24.42;31.24;101376.16;5058990;28;20517;-84
2022/07/28 07:40:38;;;;;;;2.13;1.08;;;;;;;24.42;31.35;101384.47;5056953;28;20108;-83
2022/07/28 07:43:07;;;;;;;4.97;1.40;;;;;;;24.48;31.58;101386.53;5047055;28;20103;-83
2022/07/28 07:45:35;;;;;;;3.65;1.20;;;;;;;24.50;31.62;101385.31;5044708;28;20049;-84
2022/07/28 07:48:03;;;;;;;3.58;1.30;;;;;;;24.59;31.94;101394.47;5057904;28;20075;-83
2022/07/28 07:50:31;;;;;;;1.10;0.90;;;;;;;24.67;31.56;101388.00;5060404;28;20040;-83
2022/07/28 07:52:59;;;;;;;3.72;1.20;;;;;;;24.79;31.85;101387.41;5066259;28;20044;-84
2022/07/28 07:55:27;;;;;;;2.58;1.10;;;;;;;24.90;31.29;101387.00;5078349;28;20503;-83
2022/07/28 07:58:04;;;;;;;2.90;1.15;;;;;;;25.04;31.65;101385.38;5063315;28;20048;-83
2022/07/28 08:00:34;;;;;;;2.67;1.20;;;;;;;25.21;31.17;101384.22;5054978;28;20383;-83
2022/07/28 08:03:02;;;;;;;6.32;2.00;;;;;;;25.34;31.40;101392.81;5060417;28;20045;-83
2022/07/28 08:05:38;;;;;;;7.68;1.70;;;;;;;25.49;30.87;101387.31;5080590;28;20053;-85
2022/07/28 08:08:06;;;;;;;6.50;2.50;;;;;;;25.65;30.80;101386.34;5082412;28;20045;-83
2022/07/28 08:10:34;;;;;;;6.55;1.48;;;;;;;25.80;30.65;101384.44;5058137;28;20067;-84
2022/07/28 08:13:02;;;;;;;3.33;1.40;;;;;;;25.94;30.31;101383.63;5054476;28;20037;-84
2022/07/28 08:15:30;;;;;;;3.50;1.33;;;;;;;26.10;30.46;101377.88;5069162;28;20110;-84
2022/07/28 08:17:59;;;;;;;3.35;1.17;;;;;;;26.27;30.02;101374.94;5048581;28;20041;-83
2022/07/28 08:20:27;;;;;;;3.55;1.35;;;;;;;26.40;29.81;101369.53;5052747;28;20063;-83
2022/07/28 08:22:57;;;;;;;4.30;1.13;;;;;;;26.56;29.76;101377.69;5040374;28;20048;-84
2022/07/28 08:25:25;;;;;;;2.35;1.13;;;;;;;26.70;29.84;101375.94;5054906;28;20050;-86
2022/07/28 08:27:53;;;;;;;2.85;1.20;;;;;;;26.85;29.35;101371.19;5052104;28;20039;-85
2022/07/28 08:30:22;;;;;;;2.65;1.00;;;;;;;27.02;29.02;101371.84;5068928;28;20115;-86
2022/07/28 08:33:01;;;;;;;2.05;0.90;;;;;;;27.18;28.99;101369.66;5053497;28;20369;-85
2022/07/28 08:35:29;;;;;;;2.72;0.95;;;;;;;27.34;28.87;101374.13;5057470;28;20082;-85
2022/07/28 08:38:02;;;;;;;2.60;1.13;;;;;;;27.47;28.27;101371.47;5057916;28;20102;-84
2022/07/28 08:40:32;;;;;;;2.53;1.05;;;;;;;27.64;28.05;101367.38;5056888;28;20069;-85
2022/07/28 08:43:06;;;;;;;2.60;1.00;;;;;;;27.81;27.42;101364.28;5058163;28;20498;-85
2022/07/28 08:45:38;;;;;;;2.08;1.00;;;;;;;27.90;27.33;101361.13;5057099;28;20052;-86
2022/07/28 08:48:10;;;;;;;2.70;1.15;;;;;;;28.02;27.15;101358.63;5044260;28;20041;-85
2022/07/28 08:50:39;;;;;;;2.92;1.00;;;;;;;28.11;27.22;101359.31;5056475;28;20048;-85
2022/07/28 08:53:07;;;;;;;2.17;1.00;;;;;;;28.20;26.96;101352.53;5071935;28;20099;-85
2022/07/28 08:55:36;;;;;;;1.67;0.90;;;;;;;28.30;26.86;101361.41;5056112;28;20131;-84
2022/07/28 08:58:06;;;;;;;2.03;0.98;;;;;;;28.38;26.44;101355.66;5056429;28;20068;-86
2022/07/28 09:00:34;;;;;;;3.22;0.88;;;;;;;28.42;26.17;101344.91;5049811;28;20514;-85
2022/07/28 09:03:04;;;;;;;2.95;1.08;;;;;;;28.46;25.71;101344.31;5052393;28;20411;-85
2022/07/28 09:05:35;;;;;;;2.78;1.27;;;;;;;28.52;25.73;101350.97;5035413;28;20056;-85
2022/07/28 09:08:04;;;;;;;3.92;1.10;;;;;;;28.50;26.14;101345.59;5049564;28;20044;-86
2022/07/28 09:10:32;;;;;;;2.40;0.95;;;;;;;28.57;26.07;101349.31;5056090;28;20410;-84
2022/07/28 09:13:00;;;;;;;1.98;0.93;;;;;;;28.62;25.51;101359.84;5045393;28;20053;-85
2022/07/28 09:15:28;;;;;;;3.05;1.00;;;;;;;28.65;25.66;101349.13;5054531;28;20052;-84
2022/07/28 09:17:57;;;;;;;3.05;1.00;;;;;;;28.68;25.85;101345.91;5031426;28;20136;-85
2022/07/28 09:20:28;;;;;;;4.22;1.30;;;;;;;28.75;25.34;101340.31;5030879;28;20184;-83
2022/07/28 09:23:00;;;;;;;2.13;1.13;;;;;;;28.80;24.61;101337.81;5031898;28;20045;-85
2022/07/28 09:25:28;;;;;;;1.33;0.82;;;;;;;28.80;24.86;101346.19;5015369;28;20042;-84
2022/07/28 09:28:05;;;;;;;2.10;0.90;;;;;;;28.87;24.25;101347.06;5023996;28;20057;-84
2022/07/28 09:30:35;;;;;;;4.25;1.30;;;;;;;28.91;24.45;101348.38;5011356;28;20377;-85
2022/07/28 09:33:21;;;;;;;2.42;1.10;;;;;;;28.95;24.16;101346.88;5013068;28;20148;-84
2022/07/28 09:36:14;;;;;;;3.33;1.10;;;;;;;28.99;23.72;101352.94;5008352;28;20050;-85
2022/07/28 09:38:45;;;;;;;3.90;1.30;;;;;;;29.00;24.05;101347.09;5029812;28;20563;-86
2022/07/28 09:41:17;;;;;;;5.10;1.50;;;;;;;29.01;23.89;101343.25;5020657;28;20519;-84
2022/07/28 09:43:45;;;;;;;;;;;;;;;28.76;24.90;101342.09;5032271;28;20041;-85
2022/07/28 09:46:21;;;;;;;1.92;0.80;;;;;;;29.03;24.20;101335.50;5041448;28;19925;-83
2022/07/28 09:48:57;;;;;;;2.60;0.80;;;;;;;29.12;23.45;101331.44;5044020;28;20029;-84
2022/07/28 09:51:28;;;;;;;1.98;0.70;;;;;;;29.15;23.91;101335.75;5072627;28;20040;-84
2022/07/28 09:54:09;;;;;;;3.10;0.90;;;;;;;29.24;24.02;101342.00;5056679;28;20220;-84
2022/07/28 09:56:37;;;;;;;3.42;0.95;;;;;;;29.28;24.33;101335.75;5055991;28;20048;-83
2022/07/28 09:59:06;;;;;;;3.20;1.00;;;;;;;29.36;23.99;101337.53;5050016;28;20041;-83
2022/07/28 10:01:51;;;;;;;1.98;1.00;;;;;;;29.48;23.12;101333.03;5062709;28;20151;-83
2022/07/28 10:04:29;;;;;;;2.05;1.33;;;;;;;29.58;23.01;101330.63;5040644;28;20052;-83
2022/07/28 10:07:01;;;;;;;1.58;0.80;;;;;;;29.66;22.56;101322.00;5073151;28;20094;-83
2022/07/28 10:09:30;;;;;;;3.55;1.15;;;;;;;29.73;22.91;101324.84;5071721;28;20052;-83
2022/07/28 10:12:24;;;;;;;4.28;1.00;;;;;;;29.80;22.75;101323.75;5042571;28;20045;-83
2022/07/28 10:18:18;;;;;;;1.45;0.95;;;;;;;29.98;22.62;101330.66;5076712;28;20040;-83
2022/07/28 10:20:49;;;;;;;2.17;1.17;;;;;;;30.04;22.72;101315.75;5070321;28;20049;-83
2022/07/28 10:23:17;;;;;;;3.42;0.98;;;;;;;30.08;22.32;101311.44;5075329;28;20029;-84
2022/07/28 10:25:47;;;;;;;4.22;1.10;;;;;;;30.14;22.62;101317.00;5053862;28;20070;-83
2022/07/28 10:28:20;;;;;;;3.10;1.10;;;;;;;30.19;22.66;101314.44;5054062;28;20060;-82
2022/07/28 10:30:54;;;;;;;2.92;1.15;;;;;;;30.22;22.38;101316.78;5060233;28;20045;-82
2022/07/28 10:33:30;;;;;;;1.92;1.02;;;;;;;30.25;22.67;101313.53;5056520;28;20048;-83
2022/07/28 10:36:00;;;;;;;2.42;1.00;;;;;;;30.27;22.39;101305.78;5058116;28;20041;-83
2022/07/28 10:38:34;;;;;;;3.35;1.02;;;;;;;30.32;22.43;101302.28;5057698;28;20422;-83
2022/07/28 10:41:08;;;;;;;1.95;1.10;;;;;;;30.36;22.50;101302.72;5056701;28;20047;-83
2022/07/28 10:43:37;;;;;;;3.08;1.10;;;;;;;30.36;22.73;101295.19;5054130;28;20037;-85
2022/07/28 10:46:13;;;;;;;3.05;1.02;;;;;;;30.42;22.80;101287.81;5050603;28;20049;-85
2022/07/28 10:48:44;;;;;;;3.97;1.50;;;;;;;30.46;22.59;101292.78;5046304;28;20052;-85
2022/07/28 10:51:12;;;;;;;2.78;1.10;;;;;;;30.53;22.25;101289.97;5054232;28;20115;-83
2022/07/28 10:53:47;;;;;;;3.38;1.05;;;;;;;30.60;21.85;101283.25;5055059;28;20451;-84
2022/07/28 10:56:25;;;;;;;2.70;1.00;;;;;;;30.67;22.03;101287.94;5054210;28;20061;-84
2022/07/28 10:59:03;;;;;;;2.28;1.00;;;;;;;30.71;21.96;101283.63;5053467;28;20050;-85
2022/07/28 11:01:36;;;;;;;3.30;1.15;;;;;;;30.76;21.98;101283.81;5072314;28;20483;-84
2022/07/28 11:04:51;;;;;;;2.80;1.13;;;;;;;30.77;21.63;101271.50;5053048;28;20209;-84
2022/07/28 11:07:21;;;;;;;2.78;0.95;;;;;;;30.79;21.92;101273.00;5051977;28;20491;-84
2022/07/28 11:09:49;;;;;;;2.58;0.90;;;;;;;30.86;21.69;101276.63;5042053;28;20037;-85
2022/07/28 11:12:48;;;;;;;2.00;1.05;;;;;;;30.88;21.62;101282.03;5050498;28;20037;-83
2022/07/28 11:15:32;;;;;;;2.33;1.05;;;;;;;30.91;21.35;101271.19;5049529;28;20098;-85
2022/07/28 11:18:06;;;;;;;2.22;1.17;;;;;;;30.92;21.78;101275.72;5072744;28;20044;-84
2022/07/28 11:21:05;;;;;;;1.80;1.00;;;;;;;30.94;21.55;101276.34;5057076;28;20555;-83
2022/07/28 11:23:53;;;;;;;3.90;1.13;;;;;;;30.97;21.30;101275.88;5069527;28;20040;-82
2022/07/28 11:26:36;;;;;;;3.03;1.10;;;;;;;30.98;21.43;101268.34;5034183;28;20056;-82
2022/07/28 11:29:21;;;;;;;3.47;1.30;;;;;;;30.98;21.25;101269.19;5042848;28;20103;-83
2022/07/28 11:32:01;;;;;;;2.38;1.10;;;;;;;30.98;21.16;101271.13;5049496;28;20522;-83
2022/07/28 11:35:07;;;;;;;3.42;1.15;;;;;;;30.94;21.37;101267.94;5047282;28;20057;-83
2022/07/28 11:38:07;;;;;;;3.33;1.20;;;;;;;30.93;21.25;101266.22;5043622;28;20051;-83
2022/07/28 11:40:38;;;;;;;2.85;1.20;;;;;;;30.94;21.37;101258.66;5058518;28;20277;-84
2022/07/28 11:43:29;;;;;;;2.40;1.20;;;;;;;30.95;21.34;101254.78;5079869;28;20103;-83
2022/07/28 11:46:34;;;;;;;2.72;1.10;;;;;;;30.93;21.51;101251.34;5064346;28;20513;-85
2022/07/28 11:49:20;;;;;;;2.25;1.10;;;;;;;31.01;21.35;101253.88;5060803;28;20044;-84
2022/07/28 11:52:21;;;;;;;2.78;1.08;;;;;;;30.99;21.52;101239.19;5069261;28;20492;-85